24.0°F
Current conditions from King Hill
Updated every 5 minutes
 
  Friday November 28, 2014

Station Historical Data
Daily Summary for March 20, 2012 Units:  Both    English   Metric
« Previous Day
Next Day »
Daily Weekly Monthly Yearly Custom
  High: Low: Average:
Temperature: 78.3 °F /  25.7 °C 49.2 °F /  9.6 °C 63.2 °F /  17.3 °C
Dew Point: 55.6 °F /  13.1 °C 44.9 °F /  7.2 °C 51.1 °F /  10.6 °C
Humidity: 89% 41% 67%
Wind Speed: 6.0mph /  9.7km/h - 2.3mph /  3.7km/h
Wind Gust: 10.0mph /  16.1km/h - -
Wind- - SW
Pressure: 30.22 in /  1023.2 hPa 30.13 in /  1020.2 hPa -
Precipitation: 0.00 in /  0 mm    
Historical Graphs
 
 
Tabular Data for March 20, 2012
Time Temperature Dew Point Pressure Wind Wind Speed Wind Gust Humidity Daily Rainfall
00:04 55.6 °F /  13.1 °C 50.5 °F /  10.3 °C 30.14in /  1020.5hPa Calm     83% 0.00in /  0mm
00:10 55.7 °F /  13.2 °C 50.6 °F /  10.3 °C 30.14in /  1020.5hPa Calm     83% 0.00in /  0mm
00:14 55.6 °F /  13.1 °C 50.5 °F /  10.3 °C 30.14in /  1020.5hPa Calm     83% 0.00in /  0mm
00:19 55.5 °F /  13.1 °C 50.1 °F /  10.1 °C 30.14in /  1020.5hPa Calm     82% 0.00in /  0mm
00:25 55.1 °F /  12.8 °C 50.0 °F /  10 °C 30.14in /  1020.5hPa Calm     83% 0.00in /  0mm
00:29 54.7 °F /  12.6 °C 49.6 °F /  9.8 °C 30.14in /  1020.5hPa Calm     83% 0.00in /  0mm
00:34 54.8 °F /  12.7 °C 50.1 °F /  10.1 °C 30.14in /  1020.5hPa Calm     84% 0.00in /  0mm
00:39 54.8 °F /  12.7 °C 49.7 °F /  9.8 °C 30.14in /  1020.5hPa Calm     83% 0.00in /  0mm
00:44 54.6 °F /  12.6 °C 49.9 °F /  9.9 °C 30.14in /  1020.5hPa Calm     84% 0.00in /  0mm
00:49 54.9 °F /  12.7 °C 50.5 °F /  10.3 °C 30.14in /  1020.5hPa Calm     85% 0.00in /  0mm
00:54 55.0 °F /  12.8 °C 50.6 °F /  10.3 °C 30.14in /  1020.5hPa Calm     85% 0.00in /  0mm
00:59 54.6 °F /  12.6 °C 49.9 °F /  9.9 °C 30.14in /  1020.5hPa Calm     84% 0.00in /  0mm
01:04 54.3 °F /  12.4 °C 49.6 °F /  9.8 °C 30.14in /  1020.5hPa Calm     84% 0.00in /  0mm
01:09 53.7 °F /  12.1 °C 48.7 °F /  9.3 °C 30.14in /  1020.5hPa Calm     83% 0.00in /  0mm
01:14 52.8 °F /  11.6 °C 47.8 °F /  8.8 °C 30.14in /  1020.5hPa Calm     83% 0.00in /  0mm
01:19 52.8 °F /  11.6 °C 48.7 °F /  9.3 °C 30.14in /  1020.5hPa Calm   1.0mph /  1.6km/h 86% 0.00in /  0mm
01:25 53.3 °F /  11.8 °C 49.2 °F /  9.6 °C 30.14in /  1020.5hPa Calm   1.0mph /  1.6km/h 86% 0.00in /  0mm
01:29 53.4 °F /  11.9 °C 49.3 °F /  9.6 °C 30.14in /  1020.5hPa Calm     86% 0.00in /  0mm
01:34 53.3 °F /  11.8 °C 49.2 °F /  9.6 °C 30.14in /  1020.5hPa Calm     86% 0.00in /  0mm
01:39 53.5 °F /  11.9 °C 49.4 °F /  9.7 °C 30.14in /  1020.5hPa Calm     86% 0.00in /  0mm
01:44 53.5 °F /  11.9 °C 49.4 °F /  9.7 °C 30.15in /  1020.9hPa Calm     86% 0.00in /  0mm
01:50 53.2 °F /  11.8 °C 49.1 °F /  9.5 °C 30.14in /  1020.5hPa Calm     86% 0.00in /  0mm
01:59 52.5 °F /  11.4 °C 48.4 °F /  9.1 °C 30.14in /  1020.5hPa Calm     86% 0.00in /  0mm
02:04 52.2 °F /  11.2 °C 48.1 °F /  8.9 °C 30.15in /  1020.9hPa Calm     86% 0.00in /  0mm
02:09 52.0 °F /  11.1 °C 48.3 °F /  9.1 °C 30.15in /  1020.9hPa Calm     87% 0.00in /  0mm
02:14 51.8 °F /  11 °C 48.1 °F /  8.9 °C 30.15in /  1020.9hPa Calm     87% 0.00in /  0mm
02:19 51.5 °F /  10.8 °C 48.1 °F /  8.9 °C 30.15in /  1020.9hPa Calm     88% 0.00in /  0mm
02:24 51.3 °F /  10.7 °C 47.9 °F /  8.8 °C 30.15in /  1020.9hPa NW 1.0mph /  1.6km/h 1.0mph /  1.6km/h 88% 0.00in /  0mm
02:29 50.8 °F /  10.4 °C 47.4 °F /  8.6 °C 30.15in /  1020.9hPa NW 2.0mph /  3.2km/h 3.0mph /  4.8km/h 88% 0.00in /  0mm
02:34 50.8 °F /  10.4 °C 47.4 °F /  8.6 °C 30.15in /  1020.9hPa NW 2.0mph /  3.2km/h 4.0mph /  6.4km/h 88% 0.00in /  0mm
02:39 51.2 °F /  10.7 °C 48.1 °F /  8.9 °C 30.15in /  1020.9hPa Calm   4.0mph /  6.4km/h 89% 0.00in /  0mm
02:45 51.8 °F /  11 °C 48.4 °F /  9.1 °C 30.15in /  1020.9hPa SSE 2.0mph /  3.2km/h 4.0mph /  6.4km/h 88% 0.00in /  0mm
02:49 52.7 °F /  11.5 °C 48.9 °F /  9.4 °C 30.15in /  1020.9hPa SSE 2.0mph /  3.2km/h 4.0mph /  6.4km/h 87% 0.00in /  0mm
02:54 53.4 °F /  11.9 °C 49.0 °F /  9.4 °C 30.15in /  1020.9hPa Calm   4.0mph /  6.4km/h 85% 0.00in /  0mm
02:59 53.4 °F /  11.9 °C 48.4 °F /  9.1 °C 30.15in /  1020.9hPa SSE 1.0mph /  1.6km/h 3.0mph /  4.8km/h 83% 0.00in /  0mm
03:04 53.4 °F /  11.9 °C 48.0 °F /  8.9 °C 30.15in /  1020.9hPa SSE 2.0mph /  3.2km/h 5.0mph /  8km/h 82% 0.00in /  0mm
03:09 53.7 °F /  12.1 °C 48.0 °F /  8.9 °C 30.15in /  1020.9hPa SSE 2.0mph /  3.2km/h 5.0mph /  8km/h 81% 0.00in /  0mm
03:14 54.1 °F /  12.3 °C 48.1 °F /  8.9 °C 30.15in /  1020.9hPa SSE 3.0mph /  4.8km/h 6.0mph /  9.7km/h 80% 0.00in /  0mm
03:19 54.4 °F /  12.4 °C 48.0 °F /  8.9 °C 30.15in /  1020.9hPa SSE 1.0mph /  1.6km/h 6.0mph /  9.7km/h 79% 0.00in /  0mm
03:24 54.2 °F /  12.3 °C 47.8 °F /  8.8 °C 30.15in /  1020.9hPa Calm   5.0mph /  8km/h 79% 0.00in /  0mm
03:30 53.5 °F /  11.9 °C 46.8 °F /  8.2 °C 30.15in /  1020.9hPa Calm   1.0mph /  1.6km/h 78% 0.00in /  0mm
03:40 52.2 °F /  11.2 °C 46.2 °F /  7.9 °C 30.15in /  1020.9hPa SSE 2.0mph /  3.2km/h 3.0mph /  4.8km/h 80% 0.00in /  0mm
03:44 51.5 °F /  10.8 °C 45.9 °F /  7.7 °C 30.15in /  1020.9hPa SSE 3.0mph /  4.8km/h 4.0mph /  6.4km/h 81% 0.00in /  0mm
03:49 51.0 °F /  10.6 °C 45.7 °F /  7.6 °C 30.15in /  1020.9hPa SSE 1.0mph /  1.6km/h 4.0mph /  6.4km/h 82% 0.00in /  0mm
03:54 50.6 °F /  10.3 °C 45.6 °F /  7.6 °C 30.15in /  1020.9hPa Calm   3.0mph /  4.8km/h 83% 0.00in /  0mm
03:59 50.2 °F /  10.1 °C 45.2 °F /  7.3 °C 30.15in /  1020.9hPa Calm   1.0mph /  1.6km/h 83% 0.00in /  0mm
04:04 49.9 °F /  9.9 °C 44.9 °F /  7.2 °C 30.15in /  1020.9hPa Calm     83% 0.00in /  0mm
04:09 49.5 °F /  9.7 °C 44.9 °F /  7.2 °C 30.15in /  1020.9hPa Calm     84% 0.00in /  0mm
04:14 49.4 °F /  9.7 °C 45.1 °F /  7.3 °C 30.15in /  1020.9hPa Calm     85% 0.00in /  0mm
04:19 49.2 °F /  9.6 °C 45.2 °F /  7.3 °C 30.16in /  1021.2hPa Calm     86% 0.00in /  0mm
04:24 49.2 °F /  9.6 °C 45.5 °F /  7.5 °C 30.15in /  1020.9hPa Calm     87% 0.00in /  0mm
04:29 49.4 °F /  9.7 °C 46.0 °F /  7.8 °C 30.16in /  1021.2hPa Calm   1.0mph /  1.6km/h 88% 0.00in /  0mm
04:34 49.9 °F /  9.9 °C 46.5 °F /  8.1 °C 30.16in /  1021.2hPa Calm   2.0mph /  3.2km/h 88% 0.00in /  0mm
04:39 49.9 °F /  9.9 °C 46.5 °F /  8.1 °C 30.16in /  1021.2hPa Calm   2.0mph /  3.2km/h 88% 0.00in /  0mm
04:44 50.0 °F /  10 °C 46.6 °F /  8.1 °C 30.16in /  1021.2hPa Calm   3.0mph /  4.8km/h 88% 0.00in /  0mm
04:49 49.8 °F /  9.9 °C 46.1 °F /  7.8 °C 30.16in /  1021.2hPa Calm   3.0mph /  4.8km/h 87% 0.00in /  0mm
04:54 49.7 °F /  9.8 °C 46.0 °F /  7.8 °C 30.16in /  1021.2hPa Calm     87% 0.00in /  0mm
04:59 49.7 °F /  9.8 °C 46.0 °F /  7.8 °C 30.16in /  1021.2hPa Calm     87% 0.00in /  0mm
05:04 49.9 °F /  9.9 °C 46.2 °F /  7.9 °C 30.16in /  1021.2hPa Calm     87% 0.00in /  0mm
05:15 50.0 °F /  10 °C 46.3 °F /  7.9 °C 30.16in /  1021.2hPa Calm   3.0mph /  4.8km/h 87% 0.00in /  0mm
05:24 50.1 °F /  10.1 °C 46.4 °F /  8 °C 30.17in /  1021.6hPa Calm     87% 0.00in /  0mm
05:29 50.3 °F /  10.2 °C 46.6 °F /  8.1 °C 30.17in /  1021.6hPa SSE 1.0mph /  1.6km/h 2.0mph /  3.2km/h 87% 0.00in /  0mm
05:40 49.6 °F /  9.8 °C 45.3 °F /  7.4 °C 30.17in /  1021.6hPa SSE 1.0mph /  1.6km/h 3.0mph /  4.8km/h 85% 0.00in /  0mm
05:45 49.5 °F /  9.7 °C 45.5 °F /  7.5 °C 30.17in /  1021.6hPa Calm   4.0mph /  6.4km/h 86% 0.00in /  0mm
05:54 49.7 °F /  9.8 °C 46.0 °F /  7.8 °C 30.17in /  1021.6hPa Calm   3.0mph /  4.8km/h 87% 0.00in /  0mm
06:00 49.9 °F /  9.9 °C 45.9 °F /  7.7 °C 30.17in /  1021.6hPa SSE 2.0mph /  3.2km/h 4.0mph /  6.4km/h 86% 0.00in /  0mm
06:10 49.7 °F /  9.8 °C 45.7 °F /  7.6 °C 30.17in /  1021.6hPa Calm   1.0mph /  1.6km/h 86% 0.00in /  0mm
06:20 49.5 °F /  9.7 °C 45.2 °F /  7.3 °C 30.18in /  1021.9hPa Calm   5.0mph /  8km/h 85% 0.00in /  0mm
06:35 49.7 °F /  9.8 °C 46.0 °F /  7.8 °C 30.18in /  1021.9hPa Calm     87% 0.00in /  0mm
06:44 49.4 °F /  9.7 °C 45.7 °F /  7.6 °C 30.19in /  1022.2hPa SSE 3.0mph /  4.8km/h 4.0mph /  6.4km/h 87% 0.00in /  0mm
06:50 49.5 °F /  9.7 °C 45.8 °F /  7.7 °C 30.19in /  1022.2hPa SSE 2.0mph /  3.2km/h 4.0mph /  6.4km/h 87% 0.00in /  0mm
06:55 49.7 °F /  9.8 °C 45.7 °F /  7.6 °C 30.18in /  1021.9hPa SSE 3.0mph /  4.8km/h 4.0mph /  6.4km/h 86% 0.00in /  0mm
07:05 50.9 °F /  10.5 °C 46.2 °F /  7.9 °C 30.19in /  1022.2hPa SSE 3.0mph /  4.8km/h 8.0mph /  12.9km/h 84% 0.00in /  0mm
07:14 51.2 °F /  10.7 °C 45.9 °F /  7.7 °C 30.19in /  1022.2hPa Calm   4.0mph /  6.4km/h 82% 0.00in /  0mm
07:19 51.2 °F /  10.7 °C 45.9 °F /  7.7 °C 30.19in /  1022.2hPa Calm   3.0mph /  4.8km/h 82% 0.00in /  0mm
07:25 51.2 °F /  10.7 °C 45.9 °F /  7.7 °C 30.19in /  1022.2hPa Calm   1.0mph /  1.6km/h 82% 0.00in /  0mm
07:35 51.3 °F /  10.7 °C 46.0 °F /  7.8 °C 30.19in /  1022.2hPa SSE 3.0mph /  4.8km/h 5.0mph /  8km/h 82% 0.00in /  0mm
07:45 52.7 °F /  11.5 °C 46.7 °F /  8.2 °C 30.20in /  1022.6hPa South 3.0mph /  4.8km/h 6.0mph /  9.7km/h 80% 0.00in /  0mm
07:55 53.3 °F /  11.8 °C 47.0 °F /  8.3 °C 30.20in /  1022.6hPa South 1.0mph /  1.6km/h 6.0mph /  9.7km/h 79% 0.00in /  0mm
08:00 53.9 °F /  12.2 °C 47.2 °F /  8.4 °C 30.20in /  1022.6hPa South 3.0mph /  4.8km/h 7.0mph /  11.3km/h 78% 0.00in /  0mm
08:05 54.2 °F /  12.3 °C 47.2 °F /  8.4 °C 30.20in /  1022.6hPa South 2.0mph /  3.2km/h 7.0mph /  11.3km/h 77% 0.00in /  0mm
08:15 55.3 °F /  12.9 °C 47.9 °F /  8.8 °C 30.20in /  1022.6hPa SSW 1.0mph /  1.6km/h 6.0mph /  9.7km/h 76% 0.00in /  0mm
08:25 56.3 °F /  13.5 °C 48.1 °F /  8.9 °C 30.20in /  1022.6hPa SSW 4.0mph /  6.4km/h 7.0mph /  11.3km/h 74% 0.00in /  0mm
08:35 57.3 °F /  14.1 °C 48.7 °F /  9.3 °C 30.21in /  1022.9hPa SW 3.0mph /  4.8km/h 7.0mph /  11.3km/h 73% 0.00in /  0mm
08:40 58.0 °F /  14.4 °C 49.0 °F /  9.4 °C 30.21in /  1022.9hPa SW 1.0mph /  1.6km/h 7.0mph /  11.3km/h 72% 0.00in /  0mm
08:50 59.3 °F /  15.2 °C 49.1 °F /  9.5 °C 30.21in /  1022.9hPa SSW 1.0mph /  1.6km/h 7.0mph /  11.3km/h 69% 0.00in /  0mm
08:55 59.9 °F /  15.5 °C 49.3 °F /  9.6 °C 30.21in /  1022.9hPa SSW 2.0mph /  3.2km/h 8.0mph /  12.9km/h 68% 0.00in /  0mm
09:00 60.4 °F /  15.8 °C 49.0 °F /  9.4 °C 30.21in /  1022.9hPa SSW 4.0mph /  6.4km/h 10.0mph /  16.1km/h 66% 0.00in /  0mm
09:09 61.2 °F /  16.2 °C 49.4 °F /  9.7 °C 30.22in /  1023.2hPa SSW 3.0mph /  4.8km/h 10.0mph /  16.1km/h 65% 0.00in /  0mm
09:15 61.6 °F /  16.4 °C 49.7 °F /  9.8 °C 30.22in /  1023.2hPa SSW 5.0mph /  8km/h 10.0mph /  16.1km/h 65% 0.00in /  0mm
09:20 62.0 °F /  16.7 °C 49.7 °F /  9.8 °C 30.22in /  1023.2hPa SSW 5.0mph /  8km/h 10.0mph /  16.1km/h 64% 0.00in /  0mm
09:30 62.8 °F /  17.1 °C 50.5 °F /  10.3 °C 30.22in /  1023.2hPa SSW 4.0mph /  6.4km/h 8.0mph /  12.9km/h 64% 0.00in /  0mm
09:35 63.2 °F /  17.3 °C 50.8 °F /  10.4 °C 30.22in /  1023.2hPa SSW 2.0mph /  3.2km/h 8.0mph /  12.9km/h 64% 0.00in /  0mm
09:44 64.0 °F /  17.8 °C 51.2 °F /  10.7 °C 30.22in /  1023.2hPa SSW 4.0mph /  6.4km/h 10.0mph /  16.1km/h 63% 0.00in /  0mm
09:50 64.1 °F /  17.8 °C 51.3 °F /  10.7 °C 30.22in /  1023.2hPa SSW 1.0mph /  1.6km/h 10.0mph /  16.1km/h 63% 0.00in /  0mm
10:00 64.9 °F /  18.3 °C 51.6 °F /  10.9 °C 30.22in /  1023.2hPa SSW 6.0mph /  9.7km/h 9.0mph /  14.5km/h 62% 0.00in /  0mm
10:05 65.0 °F /  18.3 °C 51.7 °F /  10.9 °C 30.22in /  1023.2hPa SSW 2.0mph /  3.2km/h 9.0mph /  14.5km/h 62% 0.00in /  0mm
10:15 66.4 °F /  19.1 °C 52.1 °F /  11.2 °C 30.22in /  1023.2hPa SSW 2.0mph /  3.2km/h 7.0mph /  11.3km/h 60% 0.00in /  0mm
10:25 66.7 °F /  19.3 °C 51.9 °F /  11.1 °C 30.22in /  1023.2hPa South 2.0mph /  3.2km/h 8.0mph /  12.9km/h 59% 0.00in /  0mm
10:30 67.0 °F /  19.4 °C 52.7 °F /  11.5 °C 30.22in /  1023.2hPa South 1.0mph /  1.6km/h 10.0mph /  16.1km/h 60% 0.00in /  0mm
10:45 68.3 °F /  20.2 °C 53.0 °F /  11.7 °C 30.22in /  1023.2hPa SSW 3.0mph /  4.8km/h 8.0mph /  12.9km/h 58% 0.00in /  0mm
10:55 68.5 °F /  20.3 °C 53.2 °F /  11.8 °C 30.22in /  1023.2hPa South 1.0mph /  1.6km/h 9.0mph /  14.5km/h 58% 0.00in /  0mm
11:00 69.2 °F /  20.7 °C 52.9 °F /  11.6 °C 30.22in /  1023.2hPa South 4.0mph /  6.4km/h 9.0mph /  14.5km/h 56% 0.00in /  0mm
11:09 70.1 °F /  21.2 °C 53.7 °F /  12.1 °C 30.22in /  1023.2hPa South 2.0mph /  3.2km/h 8.0mph /  12.9km/h 56% 0.00in /  0mm
11:25 70.4 °F /  21.3 °C 53.0 °F /  11.7 °C 30.22in /  1023.2hPa SSW 2.0mph /  3.2km/h 8.0mph /  12.9km/h 54% 0.00in /  0mm
11:39 71.3 °F /  21.8 °C 53.8 °F /  12.1 °C 30.21in /  1022.9hPa SSW 1.0mph /  1.6km/h 6.0mph /  9.7km/h 54% 0.00in /  0mm
11:45 71.7 °F /  22.1 °C 53.7 °F /  12.1 °C 30.21in /  1022.9hPa Calm   6.0mph /  9.7km/h 53% 0.00in /  0mm
11:50 72.0 °F /  22.2 °C 54.0 °F /  12.2 °C 30.21in /  1022.9hPa South 1.0mph /  1.6km/h 6.0mph /  9.7km/h 53% 0.00in /  0mm
12:00 73.0 °F /  22.8 °C 54.4 °F /  12.4 °C 30.20in /  1022.6hPa West 3.0mph /  4.8km/h 7.0mph /  11.3km/h 52% 0.00in /  0mm
12:10 73.2 °F /  22.9 °C 54.0 °F /  12.2 °C 30.20in /  1022.6hPa WSW 1.0mph /  1.6km/h 5.0mph /  8km/h 51% 0.00in /  0mm
12:15 73.0 °F /  22.8 °C 53.3 °F /  11.8 °C 30.20in /  1022.6hPa West 5.0mph /  8km/h 9.0mph /  14.5km/h 50% 0.00in /  0mm
12:20 73.1 °F /  22.8 °C 53.4 °F /  11.9 °C 30.20in /  1022.6hPa WNW 3.0mph /  4.8km/h 9.0mph /  14.5km/h 50% 0.00in /  0mm
12:30 73.4 °F /  23 °C 53.7 °F /  12.1 °C 30.20in /  1022.6hPa West 5.0mph /  8km/h 8.0mph /  12.9km/h 50% 0.00in /  0mm
12:45 73.3 °F /  22.9 °C 54.1 °F /  12.3 °C 30.20in /  1022.6hPa Calm   8.0mph /  12.9km/h 51% 0.00in /  0mm
12:54 74.0 °F /  23.3 °C 54.2 °F /  12.3 °C 30.20in /  1022.6hPa SW 4.0mph /  6.4km/h 7.0mph /  11.3km/h 50% 0.00in /  0mm
12:59 74.4 °F /  23.6 °C 55.1 °F /  12.8 °C 30.20in /  1022.6hPa West 1.0mph /  1.6km/h 7.0mph /  11.3km/h 51% 0.00in /  0mm
13:04 74.6 °F /  23.7 °C 54.2 °F /  12.3 °C 30.20in /  1022.6hPa WSW 1.0mph /  1.6km/h 7.0mph /  11.3km/h 49% 0.00in /  0mm
13:09 74.8 °F /  23.8 °C 54.9 °F /  12.7 °C 30.19in /  1022.2hPa WSW 1.0mph /  1.6km/h 7.0mph /  11.3km/h 50% 0.00in /  0mm
13:14 74.6 °F /  23.7 °C 54.2 °F /  12.3 °C 30.19in /  1022.2hPa Calm   6.0mph /  9.7km/h 49% 0.00in /  0mm
13:19 75.0 °F /  23.9 °C 54.6 °F /  12.6 °C 30.19in /  1022.2hPa SW 1.0mph /  1.6km/h 5.0mph /  8km/h 49% 0.00in /  0mm
13:25 75.2 °F /  24 °C 54.8 °F /  12.7 °C 30.19in /  1022.2hPa Calm   5.0mph /  8km/h 49% 0.00in /  0mm
13:34 75.7 °F /  24.3 °C 54.6 °F /  12.6 °C 30.19in /  1022.2hPa WSW 2.0mph /  3.2km/h 5.0mph /  8km/h 48% 0.00in /  0mm
13:39 75.5 °F /  24.2 °C 54.5 °F /  12.5 °C 30.18in /  1021.9hPa Calm   5.0mph /  8km/h 48% 0.00in /  0mm
13:44 75.9 °F /  24.4 °C 54.8 °F /  12.7 °C 30.18in /  1021.9hPa WNW 1.0mph /  1.6km/h 5.0mph /  8km/h 48% 0.00in /  0mm
13:49 75.8 °F /  24.3 °C 54.2 °F /  12.3 °C 30.18in /  1021.9hPa WNW 4.0mph /  6.4km/h 8.0mph /  12.9km/h 47% 0.00in /  0mm
13:54 75.2 °F /  24 °C 54.2 °F /  12.3 °C 30.18in /  1021.9hPa Calm   8.0mph /  12.9km/h 48% 0.00in /  0mm
13:59 75.8 °F /  24.3 °C 54.7 °F /  12.6 °C 30.18in /  1021.9hPa WSW 1.0mph /  1.6km/h 8.0mph /  12.9km/h 48% 0.00in /  0mm
14:04 76.0 °F /  24.4 °C 53.8 °F /  12.1 °C 30.18in /  1021.9hPa SSW 4.0mph /  6.4km/h 6.0mph /  9.7km/h 46% 0.00in /  0mm
14:09 76.1 °F /  24.5 °C 54.4 °F /  12.4 °C 30.18in /  1021.9hPa Calm   6.0mph /  9.7km/h 47% 0.00in /  0mm
14:14 76.1 °F /  24.5 °C 55.6 °F /  13.1 °C 30.17in /  1021.6hPa Calm   5.0mph /  8km/h 49% 0.00in /  0mm
14:19 76.8 °F /  24.9 °C 54.5 °F /  12.5 °C 30.17in /  1021.6hPa Calm   5.0mph /  8km/h 46% 0.00in /  0mm
14:24 76.7 °F /  24.8 °C 53.8 °F /  12.1 °C 30.17in /  1021.6hPa Calm   7.0mph /  11.3km/h 45% 0.00in /  0mm
14:29 77.1 °F /  25.1 °C 54.2 °F /  12.3 °C 30.17in /  1021.6hPa WNW 1.0mph /  1.6km/h 7.0mph /  11.3km/h 45% 0.00in /  0mm
14:34 77.3 °F /  25.2 °C 54.3 °F /  12.4 °C 30.17in /  1021.6hPa WSW 2.0mph /  3.2km/h 5.0mph /  8km/h 45% 0.00in /  0mm
14:39 76.7 °F /  24.8 °C 55.0 °F /  12.8 °C 30.17in /  1021.6hPa Calm   5.0mph /  8km/h 47% 0.00in /  0mm
14:44 76.5 °F /  24.7 °C 53.6 °F /  12 °C 30.16in /  1021.2hPa WSW 4.0mph /  6.4km/h 8.0mph /  12.9km/h 45% 0.00in /  0mm
14:49 76.3 °F /  24.6 °C 53.4 °F /  11.9 °C 30.16in /  1021.2hPa Calm   8.0mph /  12.9km/h 45% 0.00in /  0mm
14:54 76.7 °F /  24.8 °C 53.8 °F /  12.1 °C 30.16in /  1021.2hPa Calm   3.0mph /  4.8km/h 45% 0.00in /  0mm
14:59 77.0 °F /  25 °C 53.4 °F /  11.9 °C 30.16in /  1021.2hPa SW 4.0mph /  6.4km/h 7.0mph /  11.3km/h 44% 0.00in /  0mm
15:04 77.2 °F /  25.1 °C 53.6 °F /  12 °C 30.16in /  1021.2hPa Calm   7.0mph /  11.3km/h 44% 0.00in /  0mm
15:09 77.4 °F /  25.2 °C 53.8 °F /  12.1 °C 30.15in /  1020.9hPa WNW 3.0mph /  4.8km/h 7.0mph /  11.3km/h 44% 0.00in /  0mm
15:14 77.5 °F /  25.3 °C 53.9 °F /  12.2 °C 30.15in /  1020.9hPa WSW 1.0mph /  1.6km/h 7.0mph /  11.3km/h 44% 0.00in /  0mm
15:19 77.5 °F /  25.3 °C 53.3 °F /  11.8 °C 30.15in /  1020.9hPa Calm   5.0mph /  8km/h 43% 0.00in /  0mm
15:24 77.6 °F /  25.3 °C 54.0 °F /  12.2 °C 30.15in /  1020.9hPa Calm   4.0mph /  6.4km/h 44% 0.00in /  0mm
15:29 77.6 °F /  25.3 °C 53.4 °F /  11.9 °C 30.15in /  1020.9hPa West 3.0mph /  4.8km/h 10.0mph /  16.1km/h 43% 0.00in /  0mm
15:34 77.6 °F /  25.3 °C 53.4 °F /  11.9 °C 30.15in /  1020.9hPa West 1.0mph /  1.6km/h 10.0mph /  16.1km/h 43% 0.00in /  0mm
15:39 77.5 °F /  25.3 °C 53.3 °F /  11.8 °C 30.15in /  1020.9hPa West 3.0mph /  4.8km/h 9.0mph /  14.5km/h 43% 0.00in /  0mm
15:44 77.4 °F /  25.2 °C 53.2 °F /  11.8 °C 30.15in /  1020.9hPa West 1.0mph /  1.6km/h 9.0mph /  14.5km/h 43% 0.00in /  0mm
15:49 77.5 °F /  25.3 °C 53.3 °F /  11.8 °C 30.14in /  1020.5hPa Calm   9.0mph /  14.5km/h 43% 0.00in /  0mm
15:54 77.5 °F /  25.3 °C 53.3 °F /  11.8 °C 30.14in /  1020.5hPa West 3.0mph /  4.8km/h 7.0mph /  11.3km/h 43% 0.00in /  0mm
15:59 77.6 °F /  25.3 °C 53.4 °F /  11.9 °C 30.14in /  1020.5hPa WNW 2.0mph /  3.2km/h 7.0mph /  11.3km/h 43% 0.00in /  0mm
16:04 77.7 °F /  25.4 °C 52.8 °F /  11.6 °C 30.14in /  1020.5hPa West 5.0mph /  8km/h 7.0mph /  11.3km/h 42% 0.00in /  0mm
16:09 77.5 °F /  25.3 °C 52.6 °F /  11.4 °C 30.14in /  1020.5hPa WNW 2.0mph /  3.2km/h 7.0mph /  11.3km/h 42% 0.00in /  0mm
16:14 77.6 °F /  25.3 °C 52.7 °F /  11.5 °C 30.14in /  1020.5hPa West 3.0mph /  4.8km/h 6.0mph /  9.7km/h 42% 0.00in /  0mm
16:19 77.6 °F /  25.3 °C 52.1 °F /  11.2 °C 30.14in /  1020.5hPa Calm   6.0mph /  9.7km/h 41% 0.00in /  0mm
16:24 78.0 °F /  25.6 °C 52.4 °F /  11.3 °C 30.14in /  1020.5hPa Calm   6.0mph /  9.7km/h 41% 0.00in /  0mm
16:29 78.3 °F /  25.7 °C 52.7 °F /  11.5 °C 30.14in /  1020.5hPa WNW 1.0mph /  1.6km/h 6.0mph /  9.7km/h 41% 0.00in /  0mm
16:34 77.8 °F /  25.4 °C 52.2 °F /  11.2 °C 30.13in /  1020.2hPa WNW 1.0mph /  1.6km/h 7.0mph /  11.3km/h 41% 0.00in /  0mm
16:40 77.7 °F /  25.4 °C 52.8 °F /  11.6 °C 30.13in /  1020.2hPa West 2.0mph /  3.2km/h 8.0mph /  12.9km/h 42% 0.00in /  0mm
16:49 77.8 °F /  25.4 °C 52.9 °F /  11.6 °C 30.13in /  1020.2hPa Calm   5.0mph /  8km/h 42% 0.00in /  0mm
16:54 77.7 °F /  25.4 °C 52.8 °F /  11.6 °C 30.13in /  1020.2hPa WNW 2.0mph /  3.2km/h 8.0mph /  12.9km/h 42% 0.00in /  0mm
16:59 77.6 °F /  25.3 °C 52.7 °F /  11.5 °C 30.13in /  1020.2hPa WSW 1.0mph /  1.6km/h 8.0mph /  12.9km/h 42% 0.00in /  0mm
17:04 77.7 °F /  25.4 °C 52.8 °F /  11.6 °C 30.13in /  1020.2hPa Calm   6.0mph /  9.7km/h 42% 0.00in /  0mm
17:09 77.9 °F /  25.5 °C 53.0 °F /  11.7 °C 30.13in /  1020.2hPa WNW 4.0mph /  6.4km/h 7.0mph /  11.3km/h 42% 0.00in /  0mm
17:14 77.4 °F /  25.2 °C 52.5 °F /  11.4 °C 30.13in /  1020.2hPa West 2.0mph /  3.2km/h 7.0mph /  11.3km/h 42% 0.00in /  0mm
17:19 77.3 °F /  25.2 °C 52.5 °F /  11.4 °C 30.13in /  1020.2hPa Calm   6.0mph /  9.7km/h 42% 0.00in /  0mm
17:24 77.4 °F /  25.2 °C 53.2 °F /  11.8 °C 30.13in /  1020.2hPa Calm   4.0mph /  6.4km/h 43% 0.00in /  0mm
17:29 77.3 °F /  25.2 °C 53.7 °F /  12.1 °C 30.13in /  1020.2hPa WNW 1.0mph /  1.6km/h 5.0mph /  8km/h 44% 0.00in /  0mm
17:34 76.9 °F /  24.9 °C 54.0 °F /  12.2 °C 30.13in /  1020.2hPa Calm   5.0mph /  8km/h 45% 0.00in /  0mm
17:39 76.8 °F /  24.9 °C 53.9 °F /  12.2 °C 30.13in /  1020.2hPa Calm   3.0mph /  4.8km/h 45% 0.00in /  0mm
17:44 76.7 °F /  24.8 °C 54.4 °F /  12.4 °C 30.13in /  1020.2hPa Calm   1.0mph /  1.6km/h 46% 0.00in /  0mm
17:49 76.3 °F /  24.6 °C 54.0 °F /  12.2 °C 30.13in /  1020.2hPa Calm   5.0mph /  8km/h 46% 0.00in /  0mm
17:54 75.8 °F /  24.3 °C 54.2 °F /  12.3 °C 30.13in /  1020.2hPa Calm   5.0mph /  8km/h 47% 0.00in /  0mm
17:59 75.5 °F /  24.2 °C 53.9 °F /  12.2 °C 30.13in /  1020.2hPa Calm   1.0mph /  1.6km/h 47% 0.00in /  0mm
18:04 75.4 °F /  24.1 °C 53.8 °F /  12.1 °C 30.13in /  1020.2hPa Calm   1.0mph /  1.6km/h 47% 0.00in /  0mm
18:09 75.5 °F /  24.2 °C 53.9 °F /  12.2 °C 30.13in /  1020.2hPa Calm   1.0mph /  1.6km/h 47% 0.00in /  0mm
18:14 75.3 °F /  24.1 °C 54.3 °F /  12.4 °C 30.13in /  1020.2hPa Calm   1.0mph /  1.6km/h 48% 0.00in /  0mm
18:19 75.0 °F /  23.9 °C 54.0 °F /  12.2 °C 30.13in /  1020.2hPa Calm   1.0mph /  1.6km/h 48% 0.00in /  0mm
18:24 74.7 °F /  23.7 °C 53.7 °F /  12.1 °C 30.13in /  1020.2hPa Calm   1.0mph /  1.6km/h 48% 0.00in /  0mm
18:29 74.5 °F /  23.6 °C 54.1 °F /  12.3 °C 30.13in /  1020.2hPa Calm   1.0mph /  1.6km/h 49% 0.00in /  0mm
18:34 73.9 °F /  23.3 °C 54.7 °F /  12.6 °C 30.13in /  1020.2hPa Calm     51% 0.00in /  0mm
18:39 72.7 °F /  22.6 °C 54.6 °F /  12.6 °C 30.13in /  1020.2hPa Calm     53% 0.00in /  0mm
18:44 71.6 °F /  22 °C 54.1 °F /  12.3 °C 30.13in /  1020.2hPa Calm     54% 0.00in /  0mm
18:50 70.5 °F /  21.4 °C 54.6 °F /  12.6 °C 30.13in /  1020.2hPa Calm     57% 0.00in /  0mm
18:55 69.0 °F /  20.6 °C 54.1 °F /  12.3 °C 30.13in /  1020.2hPa Calm     59% 0.00in /  0mm
19:00 67.9 °F /  19.9 °C 54.0 °F /  12.2 °C 30.14in /  1020.5hPa Calm     61% 0.00in /  0mm
19:05 67.4 °F /  19.7 °C 53.5 °F /  11.9 °C 30.14in /  1020.5hPa Calm     61% 0.00in /  0mm
19:10 66.7 °F /  19.3 °C 53.3 °F /  11.8 °C 30.14in /  1020.5hPa Calm     62% 0.00in /  0mm
19:15 66.3 °F /  19.1 °C 53.3 °F /  11.8 °C 30.14in /  1020.5hPa Calm     63% 0.00in /  0mm
19:20 65.9 °F /  18.8 °C 53.4 °F /  11.9 °C 30.14in /  1020.5hPa Calm     64% 0.00in /  0mm
19:25 65.6 °F /  18.7 °C 53.5 °F /  11.9 °C 30.14in /  1020.5hPa Calm     65% 0.00in /  0mm
19:35 65.0 °F /  18.3 °C 53.0 °F /  11.7 °C 30.14in /  1020.5hPa Calm     65% 0.00in /  0mm
19:40 65.0 °F /  18.3 °C 53.0 °F /  11.7 °C 30.14in /  1020.5hPa Calm     65% 0.00in /  0mm
19:50 64.3 °F /  17.9 °C 53.1 °F /  11.7 °C 30.15in /  1020.9hPa Calm     67% 0.00in /  0mm
19:55 63.9 °F /  17.7 °C 53.1 °F /  11.7 °C 30.15in /  1020.9hPa Calm     68% 0.00in /  0mm
20:00 63.6 °F /  17.6 °C 53.3 °F /  11.8 °C 30.15in /  1020.9hPa Calm     69% 0.00in /  0mm
20:05 63.2 °F /  17.3 °C 53.3 °F /  11.8 °C 30.15in /  1020.9hPa Calm     70% 0.00in /  0mm
20:10 63.0 °F /  17.2 °C 53.1 °F /  11.7 °C 30.16in /  1021.2hPa Calm     70% 0.00in /  0mm
20:15 62.7 °F /  17.1 °C 53.2 °F /  11.8 °C 30.16in /  1021.2hPa Calm     71% 0.00in /  0mm
20:20 62.5 °F /  16.9 °C 53.4 °F /  11.9 °C 30.16in /  1021.2hPa Calm     72% 0.00in /  0mm
20:25 62.6 °F /  17 °C 53.5 °F /  11.9 °C 30.16in /  1021.2hPa Calm     72% 0.00in /  0mm
20:30 62.7 °F /  17.1 °C 53.6 °F /  12 °C 30.16in /  1021.2hPa Calm     72% 0.00in /  0mm
20:35 62.8 °F /  17.1 °C 53.6 °F /  12 °C 30.16in /  1021.2hPa Calm     72% 0.00in /  0mm
20:45 62.5 °F /  16.9 °C 53.0 °F /  11.7 °C 30.17in /  1021.6hPa Calm     71% 0.00in /  0mm
20:50 62.0 °F /  16.7 °C 53.3 °F /  11.8 °C 30.17in /  1021.6hPa Calm     73% 0.00in /  0mm
20:55 61.7 °F /  16.5 °C 53.0 °F /  11.7 °C 30.17in /  1021.6hPa Calm     73% 0.00in /  0mm
21:00 61.4 °F /  16.3 °C 53.4 °F /  11.9 °C 30.17in /  1021.6hPa Calm     75% 0.00in /  0mm
21:05 61.7 °F /  16.5 °C 53.3 °F /  11.8 °C 30.17in /  1021.6hPa Calm     74% 0.00in /  0mm
21:10 61.6 °F /  16.4 °C 53.2 °F /  11.8 °C 30.17in /  1021.6hPa Calm     74% 0.00in /  0mm
21:15 61.7 °F /  16.5 °C 53.3 °F /  11.8 °C 30.18in /  1021.9hPa Calm     74% 0.00in /  0mm
21:20 61.1 °F /  16.2 °C 52.8 °F /  11.6 °C 30.18in /  1021.9hPa Calm   3.0mph /  4.8km/h 74% 0.00in /  0mm
21:25 61.1 °F /  16.2 °C 53.1 °F /  11.7 °C 30.18in /  1021.9hPa Calm   3.0mph /  4.8km/h 75% 0.00in /  0mm
21:30 60.8 °F /  16 °C 52.1 °F /  11.2 °C 30.18in /  1021.9hPa Calm     73% 0.00in /  0mm
21:35 60.3 °F /  15.7 °C 52.4 °F /  11.3 °C 30.18in /  1021.9hPa Calm     75% 0.00in /  0mm
21:40 60.4 °F /  15.8 °C 52.8 °F /  11.6 °C 30.18in /  1021.9hPa Calm     76% 0.00in /  0mm
21:45 60.3 °F /  15.7 °C 52.7 °F /  11.5 °C 30.18in /  1021.9hPa Calm     76% 0.00in /  0mm
21:50 60.1 °F /  15.6 °C 52.5 °F /  11.4 °C 30.19in /  1022.2hPa Calm     76% 0.00in /  0mm
21:55 59.9 °F /  15.5 °C 52.3 °F /  11.3 °C 30.19in /  1022.2hPa Calm     76% 0.00in /  0mm
22:00 59.6 °F /  15.3 °C 52.4 °F /  11.3 °C 30.19in /  1022.2hPa Calm     77% 0.00in /  0mm
22:05 59.8 °F /  15.4 °C 52.2 °F /  11.2 °C 30.19in /  1022.2hPa Calm   1.0mph /  1.6km/h 76% 0.00in /  0mm
22:10 59.6 °F /  15.3 °C 52.4 °F /  11.3 °C 30.19in /  1022.2hPa Calm   1.0mph /  1.6km/h 77% 0.00in /  0mm
22:15 60.0 °F /  15.6 °C 52.8 °F /  11.6 °C 30.19in /  1022.2hPa Calm   1.0mph /  1.6km/h 77% 0.00in /  0mm
22:20 60.3 °F /  15.7 °C 52.7 °F /  11.5 °C 30.19in /  1022.2hPa Calm   2.0mph /  3.2km/h 76% 0.00in /  0mm
22:25 61.1 °F /  16.2 °C 53.1 °F /  11.7 °C 30.19in /  1022.2hPa Calm   2.0mph /  3.2km/h 75% 0.00in /  0mm
22:30 61.2 °F /  16.2 °C 52.5 °F /  11.4 °C 30.20in /  1022.6hPa Calm   1.0mph /  1.6km/h 73% 0.00in /  0mm
22:35 60.7 °F /  15.9 °C 52.4 °F /  11.3 °C 30.20in /  1022.6hPa Calm   1.0mph /  1.6km/h 74% 0.00in /  0mm
22:40 60.3 °F /  15.7 °C 52.7 °F /  11.5 °C 30.20in /  1022.6hPa Calm     76% 0.00in /  0mm
22:45 60.0 °F /  15.6 °C 52.1 °F /  11.2 °C 30.20in /  1022.6hPa Calm     75% 0.00in /  0mm
22:50 59.3 °F /  15.2 °C 51.4 °F /  10.8 °C 30.20in /  1022.6hPa Calm     75% 0.00in /  0mm
22:55 59.0 °F /  15 °C 51.8 °F /  11 °C 30.20in /  1022.6hPa Calm     77% 0.00in /  0mm
23:00 59.0 °F /  15 °C 51.8 °F /  11 °C 30.20in /  1022.6hPa Calm     77% 0.00in /  0mm
23:05 59.2 °F /  15.1 °C 52.0 °F /  11.1 °C 30.20in /  1022.6hPa Calm     77% 0.00in /  0mm
23:10 59.6 °F /  15.3 °C 52.0 °F /  11.1 °C 30.20in /  1022.6hPa Calm     76% 0.00in /  0mm
23:15 59.7 °F /  15.4 °C 51.8 °F /  11 °C 30.20in /  1022.6hPa Calm     75% 0.00in /  0mm
23:20 59.5 °F /  15.3 °C 51.2 °F /  10.7 °C 30.20in /  1022.6hPa Calm     74% 0.00in /  0mm
23:25 59.0 °F /  15 °C 51.1 °F /  10.6 °C 30.20in /  1022.6hPa Calm     75% 0.00in /  0mm
23:30 58.8 °F /  14.9 °C 51.3 °F /  10.7 °C 30.20in /  1022.6hPa Calm     76% 0.00in /  0mm
23:35 58.4 °F /  14.7 °C 51.2 °F /  10.7 °C 30.20in /  1022.6hPa Calm     77% 0.00in /  0mm
23:40 58.3 °F /  14.6 °C 51.5 °F /  10.8 °C 30.20in /  1022.6hPa Calm     78% 0.00in /  0mm
23:45 58.3 °F /  14.6 °C 51.8 °F /  11 °C 30.20in /  1022.6hPa Calm     79% 0.00in /  0mm
23:50 58.2 °F /  14.6 °C 51.7 °F /  10.9 °C 30.20in /  1022.6hPa Calm     79% 0.00in /  0mm
23:55 58.2 °F /  14.6 °C 52.1 °F /  11.2 °C 30.20in /  1022.6hPa Calm     80% 0.00in /  0mm
Westford Weather
Compliments of Weather Underground

 
 
Current Radar Loop:

Copyright © WestfordWeather.net 2007-2014. All rights reserved.